sensor_id;sensor_type;location;lat;lon;timestamp;pressure;altitude;pressure_sealevel;temperature;humidity
72921;BME280;61064;51.654;5.476;2023-02-28T00:00:34;103179.19;;;0.61;68.92
72921;BME280;61064;51.654;5.476;2023-02-28T00:02:59;103178.78;;;0.56;68.96
72921;BME280;61064;51.654;5.476;2023-02-28T00:05:26;103138.50;;;0.34;69.00
72921;BME280;61064;51.654;5.476;2023-02-28T00:07:53;103153.16;;;0.42;68.96
72921;BME280;61064;51.654;5.476;2023-02-28T00:10:20;103165.06;;;0.49;69.20
72921;BME280;61064;51.654;5.476;2023-02-28T00:12:49;103133.16;;;0.22;69.37
72921;BME280;61064;51.654;5.476;2023-02-28T00:15:14;103120.72;;;0.20;69.32
72921;BME280;61064;51.654;5.476;2023-02-28T00:17:40;103151.72;;;0.35;69.32
72921;BME280;61064;51.654;5.476;2023-02-28T00:20:06;103180.91;;;0.50;69.41
72921;BME280;61064;51.654;5.476;2023-02-28T00:22:35;103124.66;;;0.15;69.48
72921;BME280;61064;51.654;5.476;2023-02-28T00:25:01;103156.56;;;0.31;69.46
72921;BME280;61064;51.654;5.476;2023-02-28T00:27:26;103186.66;;;0.46;69.49
72921;BME280;61064;51.654;5.476;2023-02-28T00:29:51;103115.75;;;0.13;69.19
72921;BME280;61064;51.654;5.476;2023-02-28T00:32:19;103130.91;;;0.07;69.42
72921;BME280;61064;51.654;5.476;2023-02-28T00:34:44;103137.06;;;0.07;69.42
72921;BME280;61064;51.654;5.476;2023-02-28T00:37:10;103166.53;;;0.25;69.59
72921;BME280;61064;51.654;5.476;2023-02-28T00:39:38;103183.91;;;0.34;69.64
72921;BME280;61064;51.654;5.476;2023-02-28T00:42:03;103124.38;;;0.02;69.65
72921;BME280;61064;51.654;5.476;2023-02-28T00:44:30;103137.63;;;0.03;69.80
72921;BME280;61064;51.654;5.476;2023-02-28T00:46:56;103172.81;;;0.27;69.78
72921;BME280;61064;51.654;5.476;2023-02-28T00:49:22;103159.59;;;0.15;69.88
72921;BME280;61064;51.654;5.476;2023-02-28T00:51:48;103174.91;;;0.21;69.85
72921;BME280;61064;51.654;5.476;2023-02-28T00:54:14;103180.94;;;0.20;70.31
72921;BME280;61064;51.654;5.476;2023-02-28T00:56:39;103117.56;;;-0.17;69.91
72921;BME280;61064;51.654;5.476;2023-02-28T00:59:04;103119.03;;;-0.20;70.08
72921;BME280;61064;51.654;5.476;2023-02-28T01:01:30;103098.25;;;-0.29;70.18
72921;BME280;61064;51.654;5.476;2023-02-28T01:03:55;103153.44;;;0.05;70.03
72921;BME280;61064;51.654;5.476;2023-02-28T01:06:20;103106.72;;;-0.21;70.20
72921;BME280;61064;51.654;5.476;2023-02-28T01:08:46;103175.69;;;0.20;70.04
72921;BME280;61064;51.654;5.476;2023-02-28T01:11:13;103174.25;;;0.13;70.23
72921;BME280;61064;51.654;5.476;2023-02-28T01:13:40;103153.94;;;0.00;70.40
72921;BME280;61064;51.654;5.476;2023-02-28T01:16:06;103164.19;;;-0.03;70.24
72921;BME280;61064;51.654;5.476;2023-02-28T01:18:31;103127.66;;;-0.21;70.35
72921;BME280;61064;51.654;5.476;2023-02-28T01:20:57;103128.31;;;-0.24;70.44
72921;BME280;61064;51.654;5.476;2023-02-28T01:23:23;103191.00;;;0.15;70.43
72921;BME280;61064;51.654;5.476;2023-02-28T01:25:50;103149.50;;;-0.11;70.63
72921;BME280;61064;51.654;5.476;2023-02-28T01:28:15;103178.56;;;0.03;70.47
72921;BME280;61064;51.654;5.476;2023-02-28T01:30:41;103169.13;;;-0.06;70.49
72921;BME280;61064;51.654;5.476;2023-02-28T01:33:06;103166.78;;;-0.13;70.79
72921;BME280;61064;51.654;5.476;2023-02-28T01:35:33;103157.09;;;-0.24;70.71
72921;BME280;61064;51.654;5.476;2023-02-28T01:37:59;103148.97;;;-0.27;70.80
72921;BME280;61064;51.654;5.476;2023-02-28T01:40:24;103206.44;;;0.02;71.01
72921;BME280;61064;51.654;5.476;2023-02-28T01:42:49;103196.75;;;0.01;70.95
72921;BME280;61064;51.654;5.476;2023-02-28T01:47:55;103143.88;;;-0.25;70.91
72921;BME280;61064;51.654;5.476;2023-02-28T01:50:25;103175.69;;;-0.01;71.04
72921;BME280;61064;51.654;5.476;2023-02-28T01:52:54;103108.41;;;-0.42;70.85
72921;BME280;61064;51.654;5.476;2023-02-28T01:55:23;103150.81;;;-0.16;70.74
72921;BME280;61064;51.654;5.476;2023-02-28T01:57:52;103126.72;;;-0.32;71.04
72921;BME280;61064;51.654;5.476;2023-02-28T02:00:22;103179.22;;;0.00;71.02
72921;BME280;61064;51.654;5.476;2023-02-28T02:02:50;103128.97;;;-0.36;71.17
72921;BME280;61064;51.654;5.476;2023-02-28T02:05:22;103167.31;;;-0.07;71.07
72921;BME280;61064;51.654;5.476;2023-02-28T02:07:51;103133.41;;;-0.25;71.40
72921;BME280;61064;51.654;5.476;2023-02-28T02:10:30;103184.56;;;0.02;71.20
72921;BME280;61064;51.654;5.476;2023-02-28T02:16:10;103170.06;;;0.05;71.24
72921;BME280;61064;51.654;5.476;2023-02-28T02:18:46;103141.16;;;-0.07;71.47
72921;BME280;61064;51.654;5.476;2023-02-28T02:21:25;103173.06;;;0.10;71.48
72921;BME280;61064;51.654;5.476;2023-02-28T02:26:59;103160.25;;;0.13;71.39
72921;BME280;61064;51.654;5.476;2023-02-28T02:32:40;103158.00;;;0.17;71.60
72921;BME280;61064;51.654;5.476;2023-02-28T02:35:29;103168.63;;;0.19;71.79
72921;BME280;61064;51.654;5.476;2023-02-28T02:38:14;103163.66;;;0.22;71.47
72921;BME280;61064;51.654;5.476;2023-02-28T02:43:33;103165.34;;;0.21;71.64
72921;BME280;61064;51.654;5.476;2023-02-28T02:46:25;103169.41;;;0.28;71.75
72921;BME280;61064;51.654;5.476;2023-02-28T02:48:55;103172.13;;;0.29;71.65
72921;BME280;61064;51.654;5.476;2023-02-28T02:51:24;103103.59;;;-0.07;71.92
72921;BME280;61064;51.654;5.476;2023-02-28T02:53:54;103145.44;;;0.23;71.87
72921;BME280;61064;51.654;5.476;2023-02-28T02:56:25;103161.81;;;0.31;71.90
72921;BME280;61064;51.654;5.476;2023-02-28T02:58:54;103158.66;;;0.25;72.26
72921;BME280;61064;51.654;5.476;2023-02-28T03:01:23;103096.66;;;-0.07;72.22
72921;BME280;61064;51.654;5.476;2023-02-28T03:04:04;103098.59;;;0.06;72.43
72921;BME280;61064;51.654;5.476;2023-02-28T03:06:32;103156.94;;;0.35;72.35
72921;BME280;61064;51.654;5.476;2023-02-28T03:08:57;103112.09;;;0.11;72.19
72921;BME280;61064;51.654;5.476;2023-02-28T03:11:22;103098.34;;;0.03;72.46
72921;BME280;61064;51.654;5.476;2023-02-28T03:14:10;103112.22;;;0.12;72.48
72921;BME280;61064;51.654;5.476;2023-02-28T03:24:07;103157.34;;;0.50;72.41
72921;BME280;61064;51.654;5.476;2023-02-28T03:26:38;103111.41;;;0.23;72.60
72921;BME280;61064;51.654;5.476;2023-02-28T03:29:47;103151.72;;;0.56;72.42
72921;BME280;61064;51.654;5.476;2023-02-28T03:32:08;103149.72;;;0.53;72.46
72921;BME280;61064;51.654;5.476;2023-02-28T03:34:58;103091.38;;;0.24;72.40
72921;BME280;61064;51.654;5.476;2023-02-28T03:37:27;103103.44;;;0.32;72.61
72921;BME280;61064;51.654;5.476;2023-02-28T03:40:05;103151.16;;;0.60;72.56
72921;BME280;61064;51.654;5.476;2023-02-28T03:42:34;103109.97;;;0.37;72.48
72921;BME280;61064;51.654;5.476;2023-02-28T03:45:25;103116.25;;;0.39;72.46
72921;BME280;61064;51.654;5.476;2023-02-28T03:47:53;103160.03;;;0.72;72.74
72921;BME280;61064;51.654;5.476;2023-02-28T03:50:39;103172.47;;;0.74;72.70
72921;BME280;61064;51.654;5.476;2023-02-28T03:55:42;103106.94;;;0.43;72.50
72921;BME280;61064;51.654;5.476;2023-02-28T03:58:17;103144.47;;;0.63;72.74
72921;BME280;61064;51.654;5.476;2023-02-28T04:00:59;103164.06;;;0.78;72.55
72921;BME280;61064;51.654;5.476;2023-02-28T04:03:32;103104.84;;;0.49;72.72
72921;BME280;61064;51.654;5.476;2023-02-28T04:05:58;103163.28;;;0.79;72.66
72921;BME280;61064;51.654;5.476;2023-02-28T04:08:23;103132.16;;;0.72;72.66
72921;BME280;61064;51.654;5.476;2023-02-28T04:11:03;103091.59;;;0.47;72.83
72921;BME280;61064;51.654;5.476;2023-02-28T04:13:31;103154.50;;;0.89;72.69
72921;BME280;61064;51.654;5.476;2023-02-28T04:15:56;103106.88;;;0.63;72.88
72921;BME280;61064;51.654;5.476;2023-02-28T04:18:22;103113.28;;;0.66;72.87
72921;BME280;61064;51.654;5.476;2023-02-28T04:20:47;103084.50;;;0.56;72.98
72921;BME280;61064;51.654;5.476;2023-02-28T04:23:13;103081.50;;;0.52;72.70
72921;BME280;61064;51.654;5.476;2023-02-28T04:25:38;103146.63;;;0.89;72.65
72921;BME280;61064;51.654;5.476;2023-02-28T04:28:05;103164.25;;;1.02;72.76
72921;BME280;61064;51.654;5.476;2023-02-28T04:30:31;103154.59;;;0.91;72.99
72921;BME280;61064;51.654;5.476;2023-02-28T04:32:58;103170.97;;;0.98;73.05
72921;BME280;61064;51.654;5.476;2023-02-28T04:35:23;103123.19;;;0.80;72.67
72921;BME280;61064;51.654;5.476;2023-02-28T04:37:48;103166.47;;;1.07;72.82
72921;BME280;61064;51.654;5.476;2023-02-28T04:40:14;103167.50;;;1.09;72.95
72921;BME280;61064;51.654;5.476;2023-02-28T04:42:39;103109.84;;;0.77;72.82
72921;BME280;61064;51.654;5.476;2023-02-28T04:45:05;103158.63;;;0.97;72.80
72921;BME280;61064;51.654;5.476;2023-02-28T04:47:31;103142.00;;;0.97;72.83
72921;BME280;61064;51.654;5.476;2023-02-28T04:49:56;103168.28;;;1.08;73.05
72921;BME280;61064;51.654;5.476;2023-02-28T04:52:22;103157.44;;;1.04;72.97
72921;BME280;61064;51.654;5.476;2023-02-28T04:54:47;103173.13;;;1.14;72.71
72921;BME280;61064;51.654;5.476;2023-02-28T04:57:13;103179.28;;;1.14;72.67
72921;BME280;61064;51.654;5.476;2023-02-28T04:59:38;103158.09;;;1.01;73.00
72921;BME280;61064;51.654;5.476;2023-02-28T05:02:04;103167.78;;;1.02;72.75
72921;BME280;61064;51.654;5.476;2023-02-28T05:04:33;103130.00;;;0.78;72.96
72921;BME280;61064;51.654;5.476;2023-02-28T05:07:01;103171.03;;;1.10;72.95
72921;BME280;61064;51.654;5.476;2023-02-28T05:09:26;103179.84;;;1.10;73.26
72921;BME280;61064;51.654;5.476;2023-02-28T05:11:53;103170.00;;;1.08;72.99
72921;BME280;61064;51.654;5.476;2023-02-28T05:14:18;103193.31;;;1.15;73.01
72921;BME280;61064;51.654;5.476;2023-02-28T05:16:44;103179.19;;;1.03;73.07
72921;BME280;61064;51.654;5.476;2023-02-28T05:19:09;103160.59;;;1.00;72.94
72921;BME280;61064;51.654;5.476;2023-02-28T05:21:40;103183.75;;;1.15;73.04
72921;BME280;61064;51.654;5.476;2023-02-28T05:24:11;103182.97;;;1.06;72.93
72921;BME280;61064;51.654;5.476;2023-02-28T05:26:39;103122.28;;;0.80;73.01
72921;BME280;61064;51.654;5.476;2023-02-28T05:29:05;103169.22;;;1.09;72.89
72921;BME280;61064;51.654;5.476;2023-02-28T05:31:31;103177.31;;;1.12;73.00
72921;BME280;61064;51.654;5.476;2023-02-28T05:33:57;103183.06;;;1.18;72.77
72921;BME280;61064;51.654;5.476;2023-02-28T05:36:22;103136.25;;;0.91;72.92
72921;BME280;61064;51.654;5.476;2023-02-28T05:38:49;103189.13;;;1.17;72.83
72921;BME280;61064;51.654;5.476;2023-02-28T05:41:15;103188.28;;;1.18;73.15
72921;BME280;61064;51.654;5.476;2023-02-28T05:43:41;103185.69;;;1.18;72.78
72921;BME280;61064;51.654;5.476;2023-02-28T05:46:08;103152.06;;;1.02;73.02
72921;BME280;61064;51.654;5.476;2023-02-28T05:48:35;103185.03;;;1.20;73.11
72921;BME280;61064;51.654;5.476;2023-02-28T05:51:02;103112.84;;;0.82;73.08
72921;BME280;61064;51.654;5.476;2023-02-28T05:53:28;103181.75;;;1.13;73.28
72921;BME280;61064;51.654;5.476;2023-02-28T05:55:54;103183.59;;;1.14;73.07
72921;BME280;61064;51.654;5.476;2023-02-28T05:58:20;103191.84;;;1.18;73.30
72921;BME280;61064;51.654;5.476;2023-02-28T06:00:45;103185.03;;;1.20;73.32
72921;BME280;61064;51.654;5.476;2023-02-28T06:03:11;103125.03;;;0.81;73.07
72921;BME280;61064;51.654;5.476;2023-02-28T06:05:36;103194.81;;;1.23;73.28
72921;BME280;61064;51.654;5.476;2023-02-28T06:08:03;103184.38;;;1.13;73.24
72921;BME280;61064;51.654;5.476;2023-02-28T06:10:30;103136.25;;;0.91;73.41
72921;BME280;61064;51.654;5.476;2023-02-28T06:12:59;103190.13;;;1.19;73.36
72921;BME280;61064;51.654;5.476;2023-02-28T06:15:27;103202.19;;;1.27;73.16
72921;BME280;61064;51.654;5.476;2023-02-28T06:17:53;103134.00;;;0.95;73.38
72921;BME280;61064;51.654;5.476;2023-02-28T06:20:18;103156.38;;;1.02;73.42
72921;BME280;61064;51.654;5.476;2023-02-28T06:22:44;103183.59;;;1.14;73.35
72921;BME280;61064;51.654;5.476;2023-02-28T06:25:10;103221.03;;;1.23;73.39
72921;BME280;61064;51.654;5.476;2023-02-28T06:27:35;103188.63;;;1.11;73.35
72921;BME280;61064;51.654;5.476;2023-02-28T06:30:01;103147.00;;;0.94;73.26
72921;BME280;61064;51.654;5.476;2023-02-28T06:32:26;103198.38;;;1.23;73.27
72921;BME280;61064;51.654;5.476;2023-02-28T06:34:52;103208.44;;;1.29;72.93
72921;BME280;61064;51.654;5.476;2023-02-28T06:37:18;103169.91;;;0.96;73.13
72921;BME280;61064;51.654;5.476;2023-02-28T06:39:44;103206.41;;;1.15;73.25
72921;BME280;61064;51.654;5.476;2023-02-28T06:42:09;103197.09;;;1.18;73.33
72921;BME280;61064;51.654;5.476;2023-02-28T06:44:34;103169.84;;;1.06;73.38
72921;BME280;61064;51.654;5.476;2023-02-28T06:47:04;103161.91;;;1.05;73.55
72921;BME280;61064;51.654;5.476;2023-02-28T06:49:32;103216.16;;;1.38;73.36
72921;BME280;61064;51.654;5.476;2023-02-28T06:51:57;103211.47;;;1.34;73.12
72921;BME280;61064;51.654;5.476;2023-02-28T06:54:23;103222.91;;;1.46;73.43
72921;BME280;61064;51.654;5.476;2023-02-28T06:56:48;103208.59;;;1.52;73.15
72921;BME280;61064;51.654;5.476;2023-02-28T06:59:14;103228.81;;;1.75;72.96
72921;BME280;61064;51.654;5.476;2023-02-28T07:01:40;103225.19;;;1.85;72.69
72921;BME280;61064;51.654;5.476;2023-02-28T07:04:06;103172.63;;;1.61;72.39
72921;BME280;61064;51.654;5.476;2023-02-28T07:06:31;103201.47;;;1.83;72.47
72921;BME280;61064;51.654;5.476;2023-02-28T07:08:57;103164.75;;;1.61;72.43
72921;BME280;61064;51.654;5.476;2023-02-28T07:11:24;103199.00;;;1.96;72.20
72921;BME280;61064;51.654;5.476;2023-02-28T07:13:54;103230.81;;;2.11;72.18
72921;BME280;61064;51.654;5.476;2023-02-28T07:16:21;103168.03;;;1.81;71.78
72921;BME280;61064;51.654;5.476;2023-02-28T07:18:46;103202.47;;;2.07;72.09
72921;BME280;61064;51.654;5.476;2023-02-28T07:21:12;103228.13;;;2.21;71.79
72921;BME280;61064;51.654;5.476;2023-02-28T07:23:38;103230.47;;;2.18;71.58
72921;BME280;61064;51.654;5.476;2023-02-28T07:26:05;103224.31;;;2.18;71.59
72921;BME280;61064;51.654;5.476;2023-02-28T07:28:31;103186.94;;;1.98;71.77
72921;BME280;61064;51.654;5.476;2023-02-28T07:30:56;103230.75;;;2.21;71.43
72921;BME280;61064;51.654;5.476;2023-02-28T07:33:22;103242.66;;;2.28;71.41
72921;BME280;61064;51.654;5.476;2023-02-28T07:35:49;103251.44;;;2.28;71.22
72921;BME280;61064;51.654;5.476;2023-02-28T07:38:14;103249.69;;;2.29;71.39
72921;BME280;61064;51.654;5.476;2023-02-28T07:40:40;103245.28;;;2.28;71.12
72921;BME280;61064;51.654;5.476;2023-02-28T07:43:05;103250.63;;;2.29;71.12
72921;BME280;61064;51.654;5.476;2023-02-28T07:45:31;103249.16;;;2.33;71.10
72921;BME280;61064;51.654;5.476;2023-02-28T07:48:00;103240.03;;;2.28;71.28
72921;BME280;61064;51.654;5.476;2023-02-28T07:50:25;103258.81;;;2.44;70.85
72921;BME280;61064;51.654;5.476;2023-02-28T07:52:52;103236.97;;;2.33;71.06
72921;BME280;61064;51.654;5.476;2023-02-28T07:55:18;103238.31;;;2.28;70.76
72921;BME280;61064;51.654;5.476;2023-02-28T07:57:43;103210.81;;;2.13;70.80
72921;BME280;61064;51.654;5.476;2023-02-28T08:00:10;103245.63;;;2.32;70.81
72921;BME280;61064;51.654;5.476;2023-02-28T08:02:36;103238.53;;;2.31;70.28
72921;BME280;61064;51.654;5.476;2023-02-28T08:05:02;103229.38;;;2.26;70.25
72921;BME280;61064;51.654;5.476;2023-02-28T08:07:27;103255.00;;;2.40;70.10
72921;BME280;61064;51.654;5.476;2023-02-28T08:09:53;103243.91;;;2.33;70.09
72921;BME280;61064;51.654;5.476;2023-02-28T08:12:18;103239.59;;;2.33;70.17
72921;BME280;61064;51.654;5.476;2023-02-28T08:14:44;103234.56;;;2.36;69.98
72921;BME280;61064;51.654;5.476;2023-02-28T08:17:10;103261.81;;;2.60;70.19
72921;BME280;61064;51.654;5.476;2023-02-28T08:19:35;103262.63;;;2.71;70.04
72921;BME280;61064;51.654;5.476;2023-02-28T08:22:01;103209.81;;;2.56;69.51
72921;BME280;61064;51.654;5.476;2023-02-28T08:24:26;103228.59;;;2.84;69.34
72921;BME280;61064;51.654;5.476;2023-02-28T08:26:52;103228.16;;;2.89;68.92
72921;BME280;61064;51.654;5.476;2023-02-28T08:29:17;103241.72;;;2.96;68.60
72921;BME280;61064;51.654;5.476;2023-02-28T08:31:43;103255.72;;;3.06;68.64
72921;BME280;61064;51.654;5.476;2023-02-28T08:34:10;103197.50;;;2.78;68.13
72921;BME280;61064;51.654;5.476;2023-02-28T08:36:36;103248.03;;;3.09;68.02
72921;BME280;61064;51.654;5.476;2023-02-28T08:39:02;103246.44;;;3.11;67.58
72921;BME280;61064;51.654;5.476;2023-02-28T08:41:28;103195.91;;;2.92;66.55
72921;BME280;61064;51.654;5.476;2023-02-28T08:43:53;103206.88;;;2.98;65.68
72921;BME280;61064;51.654;5.476;2023-02-28T08:46:19;103191.09;;;2.98;65.70
72921;BME280;61064;51.654;5.476;2023-02-28T08:48:44;103238.19;;;3.30;65.46
72921;BME280;61064;51.654;5.476;2023-02-28T08:51:13;103191.78;;;2.96;64.85
72921;BME280;61064;51.654;5.476;2023-02-28T08:53:39;103252.25;;;3.30;65.05
72921;BME280;61064;51.654;5.476;2023-02-28T08:56:08;103222.88;;;3.24;64.09
72921;BME280;61064;51.654;5.476;2023-02-28T08:58:35;103204.59;;;3.14;63.81
72921;BME280;61064;51.654;5.476;2023-02-28T09:01:08;103229.50;;;3.31;63.68
72921;BME280;61064;51.654;5.476;2023-02-28T09:03:34;103242.53;;;3.41;63.62
72921;BME280;61064;51.654;5.476;2023-02-28T09:06:00;103208.78;;;3.35;63.43
72921;BME280;61064;51.654;5.476;2023-02-28T09:08:28;103252.81;;;3.61;63.24
72921;BME280;61064;51.654;5.476;2023-02-28T09:10:54;103238.50;;;3.58;62.99
72921;BME280;61064;51.654;5.476;2023-02-28T09:13:22;103238.81;;;3.62;62.42
72921;BME280;61064;51.654;5.476;2023-02-28T09:15:47;103222.16;;;3.62;62.33
72921;BME280;61064;51.654;5.476;2023-02-28T09:18:13;103250.50;;;3.78;62.03
72921;BME280;61064;51.654;5.476;2023-02-28T09:20:39;103204.88;;;3.54;61.93
72921;BME280;61064;51.654;5.476;2023-02-28T09:23:06;103231.81;;;3.74;61.71
72921;BME280;61064;51.654;5.476;2023-02-28T09:25:31;103253.66;;;3.85;61.68
72921;BME280;61064;51.654;5.476;2023-02-28T09:27:57;103247.81;;;3.89;61.83
72921;BME280;61064;51.654;5.476;2023-02-28T09:30:22;103209.75;;;3.72;61.69
72921;BME280;61064;51.654;5.476;2023-02-28T09:32:48;103212.69;;;3.89;61.45
72921;BME280;61064;51.654;5.476;2023-02-28T09:35:18;103252.09;;;4.12;61.30
72921;BME280;61064;51.654;5.476;2023-02-28T09:37:44;103255.81;;;4.27;60.95
72921;BME280;61064;51.654;5.476;2023-02-28T09:40:11;103209.34;;;4.16;60.51
72921;BME280;61064;51.654;5.476;2023-02-28T09:42:37;103196.50;;;4.21;60.62
72921;BME280;61064;51.654;5.476;2023-02-28T09:47:48;103240.13;;;4.67;60.26
72921;BME280;61064;51.654;5.476;2023-02-28T09:50:22;103252.50;;;4.81;59.45
72921;BME280;61064;51.654;5.476;2023-02-28T09:52:54;103189.50;;;4.59;59.27
72921;BME280;61064;51.654;5.476;2023-02-28T09:57:45;103222.69;;;4.82;58.37
72921;BME280;61064;51.654;5.476;2023-02-28T10:00:18;103239.47;;;4.95;57.86
72921;BME280;61064;51.654;5.476;2023-02-28T10:05:14;103228.28;;;5.13;57.77
72921;BME280;61064;51.654;5.476;2023-02-28T10:10:49;103230.53;;;5.33;57.69
72921;BME280;61064;51.654;5.476;2023-02-28T10:16:04;103230.72;;;5.49;57.31
72921;BME280;61064;51.654;5.476;2023-02-28T10:18:46;103222.09;;;5.52;56.71
72921;BME280;61064;51.654;5.476;2023-02-28T10:21:28;103226.13;;;5.60;55.69
72921;BME280;61064;51.654;5.476;2023-02-28T10:24:11;103236.38;;;5.68;56.22
72921;BME280;61064;51.654;5.476;2023-02-28T10:26:43;103178.16;;;5.39;56.09
72921;BME280;61064;51.654;5.476;2023-02-28T10:29:10;103212.81;;;5.71;56.07
72921;BME280;61064;51.654;5.476;2023-02-28T10:31:36;103206.06;;;5.76;56.05
72921;BME280;61064;51.654;5.476;2023-02-28T10:34:01;103215.41;;;5.84;55.88
72921;BME280;61064;51.654;5.476;2023-02-28T10:36:28;103186.78;;;5.77;55.88
72921;BME280;61064;51.654;5.476;2023-02-28T10:38:53;103193.16;;;5.94;55.08
72921;BME280;61064;51.654;5.476;2023-02-28T10:41:29;103187.34;;;6.00;54.73
72921;BME280;61064;51.654;5.476;2023-02-28T10:44:23;103212.97;;;6.15;53.55
72921;BME280;61064;51.654;5.476;2023-02-28T10:46:49;103161.44;;;5.94;54.97
72921;BME280;61064;51.654;5.476;2023-02-28T10:49:24;103167.50;;;6.06;54.48
72921;BME280;61064;51.654;5.476;2023-02-28T10:51:56;103158.22;;;6.13;54.73
72921;BME280;61064;51.654;5.476;2023-02-28T10:54:33;103194.38;;;6.56;54.10
72921;BME280;61064;51.654;5.476;2023-02-28T10:57:18;103195.19;;;6.70;53.62
72921;BME280;61064;51.654;5.476;2023-02-28T10:59:44;103199.00;;;6.75;53.54
72921;BME280;61064;51.654;5.476;2023-02-28T11:02:32;103149.03;;;6.50;51.49
72921;BME280;61064;51.654;5.476;2023-02-28T11:04:58;103206.94;;;6.75;53.50
72921;BME280;61064;51.654;5.476;2023-02-28T11:07:25;103195.13;;;6.68;53.30
72921;BME280;61064;51.654;5.476;2023-02-28T11:09:52;103137.19;;;6.44;52.81
72921;BME280;61064;51.654;5.476;2023-02-28T11:12:38;103134.81;;;6.34;51.23
72921;BME280;61064;51.654;5.476;2023-02-28T11:15:18;103191.78;;;6.58;52.63
72921;BME280;61064;51.654;5.476;2023-02-28T11:17:56;103185.53;;;6.56;50.25
72921;BME280;61064;51.654;5.476;2023-02-28T11:20:28;103182.78;;;6.54;51.82
72921;BME280;61064;51.654;5.476;2023-02-28T11:22:54;103175.38;;;6.49;52.18
72921;BME280;61064;51.654;5.476;2023-02-28T11:25:24;103179.41;;;6.57;50.75
72921;BME280;61064;51.654;5.476;2023-02-28T11:27:56;103129.81;;;6.23;51.16
72921;BME280;61064;51.654;5.476;2023-02-28T11:30:40;103181.16;;;6.56;51.02
72921;BME280;61064;51.654;5.476;2023-02-28T11:33:28;103177.69;;;6.57;51.45
72921;BME280;61064;51.654;5.476;2023-02-28T11:36:02;103179.03;;;6.65;51.83
72921;BME280;61064;51.654;5.476;2023-02-28T11:38:28;103143.91;;;6.53;51.25
72921;BME280;61064;51.654;5.476;2023-02-28T11:46:30;103164.91;;;6.80;51.23
72921;BME280;61064;51.654;5.476;2023-02-28T11:49:25;103119.56;;;6.59;49.03
72921;BME280;61064;51.654;5.476;2023-02-28T11:55:31;103174.72;;;6.97;49.67
72921;BME280;61064;51.654;5.476;2023-02-28T11:58:34;103149.81;;;6.93;50.79
72921;BME280;61064;51.654;5.476;2023-02-28T12:03:59;103107.56;;;6.95;50.40
72921;BME280;61064;51.654;5.476;2023-02-28T12:07:03;103157.81;;;7.24;50.76
72921;BME280;61064;51.654;5.476;2023-02-28T12:20:34;103129.00;;;7.30;48.75
72921;BME280;61064;51.654;5.476;2023-02-28T12:28:42;103142.44;;;7.49;49.19
72921;BME280;61064;51.654;5.476;2023-02-28T12:31:17;103128.88;;;7.43;49.19
72921;BME280;61064;51.654;5.476;2023-02-28T12:33:47;103086.03;;;7.20;48.92
72921;BME280;61064;51.654;5.476;2023-02-28T12:36:18;103101.13;;;7.37;49.31
72921;BME280;61064;51.654;5.476;2023-02-28T12:39:00;103115.63;;;7.60;49.04
72921;BME280;61064;51.654;5.476;2023-02-28T12:41:47;103110.00;;;7.70;48.91
72921;BME280;61064;51.654;5.476;2023-02-28T12:44:31;103082.53;;;7.68;47.87
72921;BME280;61064;51.654;5.476;2023-02-28T12:47:04;103095.59;;;7.81;48.45
72921;BME280;61064;51.654;5.476;2023-02-28T13:00:36;103038.56;;;7.55;48.49
72921;BME280;61064;51.654;5.476;2023-02-28T13:09:14;103071.75;;;7.81;48.07
72921;BME280;61064;51.654;5.476;2023-02-28T13:11:50;103074.06;;;7.91;48.11
72921;BME280;61064;51.654;5.476;2023-02-28T13:17:11;103076.88;;;7.94;46.83
72921;BME280;61064;51.654;5.476;2023-02-28T13:19:55;103063.78;;;7.81;48.10
72921;BME280;61064;51.654;5.476;2023-02-28T13:24:56;103069.94;;;7.80;47.49
72921;BME280;61064;51.654;5.476;2023-02-28T13:29:52;103067.69;;;7.71;47.54
72921;BME280;61064;51.654;5.476;2023-02-28T13:32:19;103024.66;;;7.43;47.51
72921;BME280;61064;51.654;5.476;2023-02-28T13:39:55;103063.03;;;8.00;47.65
72921;BME280;61064;51.654;5.476;2023-02-28T13:42:35;103042.06;;;8.04;47.09
72921;BME280;61064;51.654;5.476;2023-02-28T13:47:38;103004.97;;;7.88;47.12
72921;BME280;61064;51.654;5.476;2023-02-28T13:53:30;103059.78;;;8.05;46.91
72921;BME280;61064;51.654;5.476;2023-02-28T14:07:17;103044.94;;;7.59;46.73
72921;BME280;61064;51.654;5.476;2023-02-28T14:09:51;103006.88;;;7.40;46.93
72921;BME280;61064;51.654;5.476;2023-02-28T14:21:14;103035.94;;;8.05;46.57
72921;BME280;61064;51.654;5.476;2023-02-28T14:23:50;103042.81;;;8.02;46.32
72921;BME280;61064;51.654;5.476;2023-02-28T14:31:54;103043.94;;;7.73;46.12
72921;BME280;61064;51.654;5.476;2023-02-28T14:34:50;103041.69;;;7.64;46.16
72921;BME280;61064;51.654;5.476;2023-02-28T14:37:30;103015.53;;;7.54;46.55
72921;BME280;61064;51.654;5.476;2023-02-28T14:39:59;102969.81;;;7.40;46.71
72921;BME280;61064;51.654;5.476;2023-02-28T14:42:37;102998.75;;;7.53;46.55
72921;BME280;61064;51.654;5.476;2023-02-28T14:45:19;103016.69;;;7.59;46.29
72921;BME280;61064;51.654;5.476;2023-02-28T14:47:45;102993.22;;;7.33;46.25
72921;BME280;61064;51.654;5.476;2023-02-28T14:50:23;103029.47;;;7.50;45.98
72921;BME280;61064;51.654;5.476;2023-02-28T14:52:55;103035.91;;;7.39;45.99
72921;BME280;61064;51.654;5.476;2023-02-28T14:55:44;102985.84;;;7.11;46.52
72921;BME280;61064;51.654;5.476;2023-02-28T15:00:53;102998.84;;;7.23;46.59
72921;BME280;61064;51.654;5.476;2023-02-28T15:03:22;103024.56;;;7.41;46.02
72921;BME280;61064;51.654;5.476;2023-02-28T15:06:02;102984.34;;;7.00;45.39
72921;BME280;61064;51.654;5.476;2023-02-28T15:08:29;103033.03;;;7.18;46.70
72921;BME280;61064;51.654;5.476;2023-02-28T15:11:03;102978.97;;;6.98;46.69
72921;BME280;61064;51.654;5.476;2023-02-28T15:13:53;103028.94;;;7.25;46.51
72921;BME280;61064;51.654;5.476;2023-02-28T15:16:45;103027.53;;;7.15;46.51
72921;BME280;61064;51.654;5.476;2023-02-28T15:19:28;102982.09;;;6.91;46.28
72921;BME280;61064;51.654;5.476;2023-02-28T15:21:59;103017.38;;;7.06;46.63
72921;BME280;61064;51.654;5.476;2023-02-28T15:27:05;103001.53;;;6.92;46.86